Time;durP1;ratioP1;P1;durP2;ratioP2;P2;SDS_P1;SDS_P2;PMS_P1;PMS_P2;Temp;Humidity;BMP_temperature;BMP_pressure;BME280_temperature;BME280_humidity;BME280_pressure;Samples;Min_cycle;Max_cycle;Signal;HPM_P1;HPM_P2
2023/11/25 00:00:26;;;;;;;1.55;1.45;;;7.30;78.40;;;;;;4956547;29;20090;-77
2023/11/25 00:02:54;;;;;;;2.33;1.50;;;7.20;78.30;;;;;;4940969;29;20043;-76
2023/11/25 00:05:19;;;;;;;2.28;1.50;;;7.20;78.40;;;;;;4940861;29;20086;-76
2023/11/25 00:07:45;;;;;;;3.28;1.60;;;7.20;78.40;;;;;;4957755;29;20028;-77
2023/11/25 00:10:12;;;;;;;2.20;1.40;;;7.20;78.40;;;;;;4940882;29;20126;-77
2023/11/25 00:12:38;;;;;;;2.05;1.50;;;7.20;78.40;;;;;;4924999;29;20089;-77
2023/11/25 00:15:05;;;;;;;2.65;1.50;;;7.20;78.50;;;;;;4956208;29;20051;-78
2023/11/25 00:17:32;;;;;;;2.90;1.50;;;7.20;78.50;;;;;;4957382;29;20046;-76
2023/11/25 00:19:58;;;;;;;2.70;1.83;;;7.20;78.40;;;;;;4940729;29;20034;-77
2023/11/25 00:22:24;;;;;;;1.58;1.30;;;7.10;78.40;;;;;;4956283;29;20491;-76
2023/11/25 00:24:51;;;;;;;1.65;1.30;;;7.10;78.40;;;;;;4940351;29;20035;-77
2023/11/25 00:27:17;;;;;;;2.55;1.75;;;7.10;78.40;;;;;;4957153;29;20035;-76
2023/11/25 00:29:44;;;;;;;3.50;1.48;;;7.10;78.40;;;;;;4924913;29;20130;-77
2023/11/25 00:32:10;;;;;;;3.45;1.60;;;7.10;78.40;;;;;;4940098;29;20436;-77
2023/11/25 00:34:36;;;;;;;2.15;1.40;;;7.10;78.40;;;;;;4955975;29;20043;-77
2023/11/25 00:37:03;;;;;;;2.58;1.48;;;7.10;78.40;;;;;;4955949;29;20118;-76
2023/11/25 00:39:29;;;;;;;2.25;1.50;;;7.10;78.40;;;;;;4956221;28;20031;-76
2023/11/25 00:41:59;;;;;;;1.90;1.42;;;7.00;78.40;;;;;;4940057;29;20067;-76
2023/11/25 00:44:25;;;;;;;1.67;1.30;;;7.00;78.40;;;;;;4957119;28;20110;-76
2023/11/25 00:46:51;;;;;;;2.60;1.40;;;7.00;78.40;;;;;;4956077;29;20019;-76
2023/11/25 00:49:17;;;;;;;1.83;1.30;;;7.00;78.40;;;;;;4955611;29;20034;-77
2023/11/25 00:51:43;;;;;;;1.95;1.25;;;7.00;78.40;;;;;;4940581;29;20078;-77
2023/11/25 00:54:09;;;;;;;1.65;1.38;;;7.00;78.40;;;;;;4955795;29;20110;-76
2023/11/25 00:56:35;;;;;;;2.55;1.50;;;7.00;78.40;;;;;;4956324;29;20037;-77
2023/11/25 00:59:01;;;;;;;2.58;1.60;;;7.00;78.40;;;;;;4956949;29;20036;-76
2023/11/25 01:01:27;;;;;;;2.97;1.73;;;7.00;78.40;;;;;;4924035;29;20035;-77
2023/11/25 01:03:53;;;;;;;3.15;1.52;;;7.00;79.10;;;;;;4939769;29;20063;-76
2023/11/25 01:06:20;;;;;;;2.55;1.80;;;7.00;78.40;;;;;;4924212;29;20027;-77
2023/11/25 01:08:46;;;;;;;2.35;1.40;;;6.90;78.40;;;;;;4955385;29;20543;-77
2023/11/25 01:11:12;;;;;;;2.60;1.60;;;7.00;78.50;;;;;;4957067;28;20036;-77
2023/11/25 01:13:37;;;;;;;4.47;1.58;;;6.90;78.40;;;;;;4923887;29;20106;-77
2023/11/25 01:16:04;;;;;;;2.70;1.70;;;6.90;78.40;;;;;;4955551;29;20407;-76
2023/11/25 01:18:30;;;;;;;2.45;1.48;;;6.90;78.40;;;;;;4923789;29;20027;-76
2023/11/25 01:20:59;;;;;;;3.28;1.70;;;6.90;78.40;;;;;;4956652;29;20046;-77
2023/11/25 01:23:25;;;;;;;3.97;1.90;;;6.90;78.50;;;;;;4940010;29;20118;-76
2023/11/25 01:25:51;;;;;;;2.25;1.60;;;6.90;78.40;;;;;;4956056;29;20027;-76
2023/11/25 01:28:17;;;;;;;2.28;1.52;;;6.90;78.40;;;;;;4955005;29;20076;-76
2023/11/25 01:30:43;;;;;;;2.33;1.55;;;6.90;78.40;;;;;;4923570;29;20178;-77
2023/11/25 01:33:09;;;;;;;2.60;1.67;;;6.90;78.40;;;;;;4923478;29;20050;-77
2023/11/25 01:35:38;;;;;;;1.98;1.50;;;6.90;78.50;;;;;;4923133;29;20038;-76
2023/11/25 01:38:04;;;;;;;2.42;1.38;;;6.90;78.50;;;;;;4955303;29;20039;-76
2023/11/25 01:40:30;;;;;;;1.80;1.55;;;6.90;78.50;;;;;;4938973;29;20054;-76
2023/11/25 01:42:57;;;;;;;1.80;1.27;;;6.80;78.40;;;;;;4939148;29;20487;-76
2023/11/25 01:45:24;;;;;;;1.90;1.20;;;6.80;78.40;;;;;;4923492;29;20058;-76
2023/11/25 01:47:52;;;;;;;2.80;1.55;;;6.80;78.40;;;;;;4955091;29;20357;-76
2023/11/25 01:50:19;;;;;;;4.60;1.90;;;6.80;78.40;;;;;;4938901;29;20035;-76
2023/11/25 01:52:46;;;;;;;3.13;1.88;;;6.80;78.40;;;;;;4922778;29;20038;-76
2023/11/25 01:55:16;;;;;;;3.60;1.70;;;6.80;78.40;;;;;;4939067;29;20392;-76
2023/11/25 01:57:43;;;;;;;2.97;1.85;;;6.80;78.40;;;;;;4938523;29;20031;-76
2023/11/25 02:00:13;;;;;;;2.92;1.60;;;6.80;78.40;;;;;;4939091;29;20145;-76
2023/11/25 02:02:41;;;;;;;2.72;1.58;;;6.80;78.40;;;;;;4939597;29;20094;-76
2023/11/25 02:05:07;;;;;;;2.15;1.50;;;6.80;78.50;;;;;;4954326;29;20028;-76
2023/11/25 02:07:34;;;;;;;2.88;1.60;;;6.80;78.40;;;;;;4954577;29;20349;-76
2023/11/25 02:10:00;;;;;;;2.25;1.40;;;6.80;78.40;;;;;;4954257;29;20492;-76
2023/11/25 02:12:27;;;;;;;2.90;1.50;;;6.80;78.40;;;;;;4938639;29;20055;-76
2023/11/25 02:14:58;;;;;;;2.17;1.33;;;6.80;78.50;;;;;;4937988;29;20056;-76
2023/11/25 02:17:24;;;;;;;2.92;1.73;;;6.80;78.50;;;;;;4955345;29;20038;-75
2023/11/25 02:19:51;;;;;;;3.15;1.63;;;6.80;79.10;;;;;;4940653;29;20035;-75
2023/11/25 02:22:17;;;;;;;1.85;1.40;;;6.80;78.50;;;;;;4939584;29;20040;-74
2023/11/25 02:24:43;;;;;;;2.22;1.58;;;6.70;78.50;;;;;;4954506;29;20090;-74
2023/11/25 02:27:09;;;;;;;1.90;1.33;;;6.80;78.50;;;;;;4954521;29;20031;-74
2023/11/25 02:29:35;;;;;;;2.38;1.48;;;6.80;78.50;;;;;;4954886;29;20079;-74
2023/11/25 02:32:03;;;;;;;2.97;1.60;;;6.70;79.00;;;;;;4955723;29;20039;-74
2023/11/25 02:34:30;;;;;;;3.17;1.52;;;6.80;78.50;;;;;;4955447;28;20093;-74
2023/11/25 02:36:57;;;;;;;2.40;1.50;;;6.80;78.50;;;;;;4954300;29;20412;-75
2023/11/25 02:39:24;;;;;;;2.35;1.50;;;6.70;78.40;;;;;;4954120;29;20400;-75
2023/11/25 02:41:51;;;;;;;2.08;1.52;;;6.70;78.40;;;;;;4954538;29;20176;-75
2023/11/25 02:44:17;;;;;;;2.05;1.40;;;6.70;78.50;;;;;;4955509;28;20031;-74
2023/11/25 02:46:44;;;;;;;3.22;1.67;;;6.70;78.70;;;;;;4954080;29;20525;-74
2023/11/25 02:49:11;;;;;;;1.58;1.48;;;6.70;78.50;;;;;;4955488;28;20431;-74
2023/11/25 02:51:37;;;;;;;2.58;1.48;;;6.70;78.50;;;;;;4955866;28;20055;-74
2023/11/25 02:54:05;;;;;;;2.17;1.50;;;6.70;78.50;;;;;;4938152;29;20504;-74
2023/11/25 02:56:32;;;;;;;2.65;1.50;;;6.70;78.50;;;;;;4938088;29;20035;-74
2023/11/25 02:58:58;;;;;;;2.22;1.40;;;6.70;78.50;;;;;;4938930;29;20031;-74
2023/11/25 03:01:29;;;;;;;1.77;1.50;;;6.70;78.50;;;;;;4954605;29;20039;-74
2023/11/25 03:03:55;;;;;;;3.03;1.50;;;6.70;78.50;;;;;;4956518;28;20043;-75
2023/11/25 03:06:22;;;;;;;2.63;1.60;;;6.70;78.40;;;;;;4957693;29;20024;-74
2023/11/25 03:08:48;;;;;;;3.10;1.45;;;6.70;78.50;;;;;;4958023;29;20114;-74
2023/11/25 03:11:23;;;;;;;2.30;1.50;;;6.70;78.50;;;;;;4941825;29;20451;-75
2023/11/25 03:13:49;;;;;;;3.38;1.50;;;6.70;78.50;;;;;;4958583;29;20352;-74
2023/11/25 03:16:16;;;;;;;3.55;1.73;;;6.70;78.50;;;;;;4941247;29;20055;-75
2023/11/25 03:18:41;;;;;;;3.88;1.60;;;6.70;78.50;;;;;;4957741;29;20082;-74
2023/11/25 03:21:09;;;;;;;1.90;1.45;;;6.70;78.50;;;;;;4957671;29;20035;-74
2023/11/25 03:23:36;;;;;;;2.33;1.52;;;6.70;78.50;;;;;;4926110;29;20496;-74
2023/11/25 03:26:04;;;;;;;1.92;1.42;;;6.60;78.40;;;;;;4926059;29;20593;-75
2023/11/25 03:28:31;;;;;;;2.50;1.50;;;6.70;78.50;;;;;;4957803;29;20050;-75
2023/11/25 03:31:03;;;;;;;1.65;1.40;;;6.70;78.50;;;;;;4941616;29;20031;-74
2023/11/25 03:33:29;;;;;;;4.57;1.67;;;6.70;78.50;;;;;;4957650;29;20118;-75
2023/11/25 03:35:56;;;;;;;3.58;1.75;;;6.60;78.40;;;;;;4958129;29;20067;-74
2023/11/25 03:38:22;;;;;;;2.08;1.40;;;6.70;78.50;;;;;;4957329;29;20122;-74
2023/11/25 03:40:50;;;;;;;2.22;1.40;;;6.70;78.50;;;;;;4958580;28;20418;-74
2023/11/25 03:43:15;;;;;;;1.45;1.30;;;6.60;78.50;;;;;;4957445;29;20059;-74
2023/11/25 03:45:41;;;;;;;2.28;1.40;;;6.60;78.20;;;;;;4941330;29;20031;-74
2023/11/25 03:48:08;;;;;;;4.50;1.60;;;6.60;78.50;;;;;;4957249;29;20391;-74
2023/11/25 03:50:33;;;;;;;2.38;1.40;;;6.60;78.50;;;;;;4957058;29;20035;-74
2023/11/25 03:52:59;;;;;;;2.03;1.20;;;6.60;78.50;;;;;;4941007;29;20425;-75
2023/11/25 03:55:25;;;;;;;1.67;1.40;;;6.60;78.50;;;;;;4958595;28;20039;-74
2023/11/25 03:57:51;;;;;;;2.03;1.45;;;6.60;78.50;;;;;;4941156;29;20114;-74
2023/11/25 04:00:17;;;;;;;1.90;1.42;;;6.60;78.40;;;;;;4957569;29;20027;-74
2023/11/25 04:02:46;;;;;;;3.17;1.60;;;6.60;78.40;;;;;;4956873;29;20031;-74
2023/11/25 04:05:13;;;;;;;1.92;1.40;;;6.60;78.50;;;;;;4940902;29;20058;-74
2023/11/25 04:07:39;;;;;;;3.78;1.60;;;6.60;78.50;;;;;;4956663;29;20047;-75
2023/11/25 04:10:13;;;;;;;1.67;1.58;;;6.60;78.50;;;;;;4956814;29;20037;-75
2023/11/25 04:12:51;;;;;;;2.05;1.48;;;6.60;78.50;;;;;;4957124;29;20035;-76
2023/11/25 04:15:21;;;;;;;1.35;1.30;;;6.60;79.10;;;;;;4957542;28;20107;-75
2023/11/25 04:17:47;;;;;;;2.25;1.50;;;6.60;78.50;;;;;;4941468;29;20045;-76
2023/11/25 04:20:17;;;;;;;2.95;1.70;;;6.60;78.40;;;;;;4957446;29;20034;-75
2023/11/25 04:22:44;;;;;;;1.48;1.33;;;6.50;78.40;;;;;;4956445;29;20128;-75
2023/11/25 04:25:14;;;;;;;3.80;1.42;;;6.50;78.40;;;;;;4940593;29;20027;-75
2023/11/25 04:27:44;;;;;;;3.33;1.50;;;6.60;78.50;;;;;;4956515;29;20102;-76
2023/11/25 04:30:11;;;;;;;2.38;1.60;;;6.50;78.40;;;;;;4941344;29;20431;-75
2023/11/25 04:32:38;;;;;;;1.60;1.33;;;6.50;78.40;;;;;;4956719;29;20491;-75
2023/11/25 04:35:07;;;;;;;2.67;1.65;;;6.50;78.50;;;;;;4956420;29;20078;-75
2023/11/25 04:37:33;;;;;;;2.15;1.42;;;6.50;78.40;;;;;;4925266;29;20071;-75
2023/11/25 04:39:59;;;;;;;2.33;1.48;;;6.50;78.40;;;;;;4956237;29;20038;-75
2023/11/25 04:42:25;;;;;;;2.40;1.38;;;6.50;78.40;;;;;;4957310;29;20118;-75
2023/11/25 04:44:51;;;;;;;4.53;1.75;;;6.50;78.40;;;;;;4956305;29;20122;-75
2023/11/25 04:47:17;;;;;;;3.05;1.70;;;6.50;78.50;;;;;;4956911;29;20524;-75
2023/11/25 04:49:42;;;;;;;2.30;1.60;;;6.50;78.50;;;;;;4957419;28;20432;-76
2023/11/25 04:52:08;;;;;;;3.58;1.60;;;6.50;78.50;;;;;;4939969;29;20114;-75
2023/11/25 04:54:34;;;;;;;3.05;1.50;;;6.50;78.50;;;;;;4939970;29;20377;-75
2023/11/25 04:57:01;;;;;;;4.28;1.63;;;6.50;78.50;;;;;;4956272;29;20031;-75
2023/11/25 04:59:29;;;;;;;2.92;1.52;;;6.50;78.50;;;;;;4958006;28;20033;-76
2023/11/25 05:01:55;;;;;;;1.67;1.30;;;6.40;78.40;;;;;;4957081;28;20095;-76
2023/11/25 05:04:20;;;;;;;2.53;1.60;;;6.40;78.40;;;;;;4956033;29;20435;-76
2023/11/25 05:06:47;;;;;;;3.63;1.50;;;6.40;78.40;;;;;;4940049;29;20051;-75
2023/11/25 05:09:13;;;;;;;2.17;1.50;;;6.50;78.50;;;;;;4955926;29;20122;-75
2023/11/25 05:11:40;;;;;;;2.00;1.35;;;6.40;78.40;;;;;;4939751;29;20388;-76
2023/11/25 05:14:06;;;;;;;3.40;1.50;;;6.40;78.40;;;;;;4956733;29;20130;-75
2023/11/25 05:16:32;;;;;;;2.92;1.55;;;6.50;78.40;;;;;;4955445;29;20055;-75
2023/11/25 05:18:57;;;;;;;2.83;1.50;;;6.50;78.50;;;;;;4956134;29;20380;-75
2023/11/25 05:21:23;;;;;;;1.48;1.38;;;6.40;78.40;;;;;;4955356;29;20035;-75
2023/11/25 05:23:49;;;;;;;1.63;1.38;;;6.40;78.40;;;;;;4939460;29;20122;-75
2023/11/25 05:26:15;;;;;;;2.25;1.30;;;6.50;78.50;;;;;;4922892;29;20041;-75
2023/11/25 05:28:41;;;;;;;2.30;1.30;;;6.50;78.50;;;;;;4955538;29;20031;-75
2023/11/25 05:31:07;;;;;;;2.10;1.80;;;6.50;78.50;;;;;;4955611;29;20464;-75
2023/11/25 05:33:33;;;;;;;1.60;1.50;;;6.50;78.50;;;;;;4956988;28;20380;-76
2023/11/25 05:36:00;;;;;;;2.90;1.70;;;6.50;78.40;;;;;;4956707;28;20054;-75
2023/11/25 05:38:28;;;;;;;1.90;1.30;;;6.50;78.40;;;;;;4955043;29;20035;-75
2023/11/25 05:40:55;;;;;;;1.92;1.50;;;6.40;78.40;;;;;;4956663;29;20486;-75
2023/11/25 05:43:24;;;;;;;2.28;1.70;;;6.50;78.40;;;;;;4939571;29;20093;-75
2023/11/25 05:45:50;;;;;;;2.67;1.40;;;6.50;78.40;;;;;;4956561;29;20089;-76
2023/11/25 05:48:17;;;;;;;2.25;1.40;;;6.50;78.40;;;;;;4954823;29;20035;-75
2023/11/25 05:50:44;;;;;;;2.40;1.55;;;6.40;78.40;;;;;;4954890;29;20161;-75
2023/11/25 05:53:10;;;;;;;2.42;1.60;;;6.50;78.40;;;;;;4954886;29;20035;-75
2023/11/25 05:55:36;;;;;;;3.60;1.90;;;6.50;78.40;;;;;;4955236;29;20063;-76
2023/11/25 05:58:02;;;;;;;2.17;1.40;;;6.50;78.40;;;;;;4939487;29;20122;-75
2023/11/25 06:00:29;;;;;;;1.85;1.30;;;6.50;78.50;;;;;;4955205;29;20159;-75
2023/11/25 06:02:55;;;;;;;1.88;1.52;;;6.50;78.50;;;;;;4938957;29;20063;-75
2023/11/25 06:05:21;;;;;;;2.38;1.40;;;6.50;78.50;;;;;;4954698;29;20114;-75
2023/11/25 06:07:47;;;;;;;3.30;1.48;;;6.50;78.50;;;;;;4955062;29;20076;-76
2023/11/25 06:10:13;;;;;;;2.35;1.50;;;6.50;78.50;;;;;;4954943;29;20086;-75
2023/11/25 06:12:39;;;;;;;1.63;1.45;;;6.50;78.40;;;;;;4922961;29;20031;-74
2023/11/25 06:15:06;;;;;;;1.63;1.27;;;6.50;78.50;;;;;;4938492;29;20054;-75
2023/11/25 06:17:32;;;;;;;1.40;1.30;;;6.50;78.50;;;;;;4956554;28;20055;-75
2023/11/25 06:19:59;;;;;;;2.22;1.33;;;6.50;78.50;;;;;;4954905;29;20123;-75
2023/11/25 06:22:24;;;;;;;2.10;1.30;;;6.40;78.40;;;;;;4954408;29;20126;-75
2023/11/25 06:24:50;;;;;;;1.58;1.30;;;6.50;78.50;;;;;;4938363;29;20151;-75
2023/11/25 06:27:19;;;;;;;1.55;1.33;;;6.50;78.50;;;;;;4954819;29;20031;-75
2023/11/25 06:29:45;;;;;;;1.30;1.20;;;6.50;78.50;;;;;;4954281;29;20020;-75
2023/11/25 06:32:11;;;;;;;2.00;1.38;;;6.50;78.50;;;;;;4954439;29;20042;-74
2023/11/25 06:34:37;;;;;;;1.65;1.40;;;6.40;78.50;;;;;;4939230;29;20039;-75
2023/11/25 06:37:03;;;;;;;1.60;1.33;;;6.50;78.50;;;;;;4954103;28;20421;-75
2023/11/25 06:39:31;;;;;;;2.90;1.30;;;6.50;78.50;;;;;;4939094;29;20065;-75
2023/11/25 06:41:58;;;;;;;1.38;1.27;;;6.40;78.50;;;;;;4939139;29;20042;-75
2023/11/25 06:44:25;;;;;;;1.40;1.30;;;6.50;78.50;;;;;;4938157;29;20045;-75
2023/11/25 06:46:50;;;;;;;1.48;1.20;;;6.50;78.50;;;;;;4953904;29;20031;-74
2023/11/25 06:49:16;;;;;;;2.45;1.30;;;6.40;78.40;;;;;;4938296;29;20079;-76
2023/11/25 06:51:42;;;;;;;1.88;1.50;;;6.40;78.40;;;;;;4954397;29;20042;-74
2023/11/25 06:54:09;;;;;;;1.30;1.20;;;6.40;78.40;;;;;;4954880;29;20039;-74
2023/11/25 06:56:35;;;;;;;1.30;1.20;;;6.50;78.50;;;;;;4955573;28;20071;-74
2023/11/25 06:59:02;;;;;;;2.20;1.30;;;6.40;78.50;;;;;;4922558;29;20373;-75
2023/11/25 07:01:28;;;;;;;1.33;1.20;;;6.40;78.40;;;;;;4953986;29;20086;-76
2023/11/25 07:03:54;;;;;;;2.08;1.20;;;6.40;78.50;;;;;;4937902;29;20451;-75
2023/11/25 07:06:19;;;;;;;2.58;1.65;;;6.50;78.50;;;;;;4937648;29;20476;-74
2023/11/25 07:08:45;;;;;;;2.95;1.40;;;6.50;78.50;;;;;;4953968;29;20090;-74
2023/11/25 07:11:13;;;;;;;1.55;1.30;;;6.40;78.50;;;;;;4937821;29;20038;-75
2023/11/25 07:13:40;;;;;;;2.30;1.50;;;6.50;78.50;;;;;;4954974;28;20495;-74
2023/11/25 07:16:07;;;;;;;1.50;1.40;;;6.50;78.50;;;;;;4939307;29;20084;-74
2023/11/25 07:18:33;;;;;;;2.70;1.50;;;6.50;78.50;;;;;;4953650;29;20520;-74
2023/11/25 07:21:00;;;;;;;1.33;1.23;;;6.50;79.10;;;;;;4938157;29;20399;-74
2023/11/25 07:23:26;;;;;;;2.08;1.40;;;6.50;78.50;;;;;;4955551;28;20094;-74
2023/11/25 07:25:55;;;;;;;1.40;1.30;;;6.50;78.50;;;;;;4954498;29;20054;-74
2023/11/25 07:28:21;;;;;;;1.70;1.30;;;6.50;78.50;;;;;;4954404;29;20059;-74
2023/11/25 07:30:48;;;;;;;1.77;1.23;;;6.40;78.40;;;;;;4923026;29;20035;-75
2023/11/25 07:33:13;;;;;;;1.67;1.40;;;6.50;78.50;;;;;;4953545;29;20534;-74
2023/11/25 07:35:40;;;;;;;1.48;1.38;;;6.50;78.50;;;;;;4953919;29;20036;-74
2023/11/25 07:38:06;;;;;;;1.20;1.10;;;6.50;78.50;;;;;;4953899;29;20106;-74
2023/11/25 07:40:33;;;;;;;1.77;1.40;;;6.50;78.50;;;;;;4954970;29;20082;-74
2023/11/25 07:43:00;;;;;;;1.50;1.40;;;6.50;78.50;;;;;;4954137;29;20031;-74
2023/11/25 07:45:25;;;;;;;1.65;1.30;;;6.50;78.50;;;;;;4938084;29;20041;-74
2023/11/25 07:47:52;;;;;;;1.75;1.40;;;6.50;78.50;;;;;;4955343;29;20123;-74
2023/11/25 07:50:18;;;;;;;1.50;1.40;;;6.50;78.50;;;;;;4956584;28;20066;-74
2023/11/25 07:52:45;;;;;;;1.45;1.23;;;6.50;78.40;;;;;;4945682;29;20468;-74
2023/11/25 07:55:11;;;;;;;1.58;1.40;;;6.50;78.40;;;;;;4961673;29;20035;-74
2023/11/25 07:57:38;;;;;;;1.20;1.10;;;6.50;78.40;;;;;;4961783;29;20034;-74
2023/11/25 08:00:06;;;;;;;1.73;1.50;;;6.50;78.40;;;;;;4960082;29;20045;-74
2023/11/25 08:02:38;;;;;;;2.00;1.20;;;6.50;78.40;;;;;;4960268;28;20027;-74
2023/11/25 08:05:04;;;;;;;1.45;1.33;;;6.60;78.50;;;;;;4943047;29;20046;-74
2023/11/25 08:07:29;;;;;;;1.35;1.25;;;6.60;78.50;;;;;;4942013;29;20035;-74
2023/11/25 08:09:56;;;;;;;1.65;1.40;;;6.60;78.40;;;;;;4957113;29;20038;-74
2023/11/25 08:12:22;;;;;;;1.30;1.20;;;6.60;78.50;;;;;;4958271;28;20400;-74
2023/11/25 08:14:47;;;;;;;1.92;1.30;;;6.60;78.40;;;;;;4956705;29;20122;-74
2023/11/25 08:17:13;;;;;;;1.10;1.10;;;6.60;78.40;;;;;;4940488;29;20059;-74
2023/11/25 08:19:39;;;;;;;1.33;1.23;;;6.60;78.50;;;;;;4958934;28;20405;-74
2023/11/25 08:22:04;;;;;;;1.30;1.20;;;6.60;78.50;;;;;;4940999;29;20127;-74
2023/11/25 08:24:30;;;;;;;2.85;1.40;;;6.60;78.40;;;;;;4957032;29;20039;-74
2023/11/25 08:26:56;;;;;;;2.28;1.50;;;6.60;78.40;;;;;;4956952;29;20027;-74
2023/11/25 08:29:22;;;;;;;1.10;1.10;;;6.60;78.40;;;;;;4941557;29;20037;-74
2023/11/25 08:31:48;;;;;;;1.40;1.20;;;6.60;78.40;;;;;;4940750;29;20130;-74
2023/11/25 08:34:14;;;;;;;1.35;1.27;;;6.60;78.40;;;;;;4956317;29;20043;-74
2023/11/25 08:36:44;;;;;;;1.80;1.20;;;6.60;78.40;;;;;;4957768;28;20118;-74
2023/11/25 08:39:13;;;;;;;2.05;1.33;;;6.60;78.40;;;;;;4958174;29;20031;-74
2023/11/25 08:41:43;;;;;;;1.42;1.30;;;6.60;78.40;;;;;;4941109;29;20027;-74
2023/11/25 08:44:12;;;;;;;1.20;1.10;;;6.70;78.50;;;;;;4957720;28;20100;-74
2023/11/25 08:46:39;;;;;;;2.15;1.38;;;6.70;78.50;;;;;;4940713;29;20101;-74
2023/11/25 08:49:07;;;;;;;1.33;1.15;;;6.70;78.50;;;;;;4956291;29;20051;-75
2023/11/25 08:51:33;;;;;;;1.38;1.27;;;6.70;78.50;;;;;;4956510;29;20039;-74
2023/11/25 08:53:59;;;;;;;1.55;1.30;;;6.70;78.50;;;;;;4940266;29;20039;-74
2023/11/25 08:56:25;;;;;;;1.42;1.20;;;6.80;78.50;;;;;;4956052;29;20055;-74
2023/11/25 08:58:51;;;;;;;1.25;1.15;;;6.80;78.50;;;;;;4955909;29;20057;-74
2023/11/25 09:01:17;;;;;;;1.75;1.20;;;6.80;78.50;;;;;;4956239;28;20098;-74
2023/11/25 09:03:43;;;;;;;1.40;1.30;;;6.80;78.50;;;;;;4957251;28;20047;-74
2023/11/25 09:06:08;;;;;;;1.38;1.27;;;6.80;78.50;;;;;;4940563;29;20035;-74
2023/11/25 09:08:35;;;;;;;1.30;1.20;;;6.80;78.50;;;;;;4955958;29;20046;-74
2023/11/25 09:11:01;;;;;;;1.15;1.15;;;6.80;78.50;;;;;;4958436;29;20028;-74
2023/11/25 09:13:27;;;;;;;1.20;1.10;;;6.80;78.50;;;;;;4941640;29;20046;-74
2023/11/25 09:15:52;;;;;;;1.17;1.10;;;6.90;78.50;;;;;;4957212;29;20051;-74
2023/11/25 09:18:18;;;;;;;1.85;1.27;;;6.90;78.50;;;;;;4955590;29;20500;-73
2023/11/25 09:20:45;;;;;;;1.17;1.15;;;6.90;78.50;;;;;;4940537;29;20039;-74
2023/11/25 09:23:11;;;;;;;1.30;1.20;;;6.90;78.50;;;;;;4958094;29;20480;-74
2023/11/25 09:25:37;;;;;;;1.23;1.20;;;6.90;78.50;;;;;;4956395;29;20126;-74
2023/11/25 09:28:03;;;;;;;1.33;1.23;;;6.90;78.50;;;;;;4924160;29;20499;-73
2023/11/25 09:30:29;;;;;;;1.15;1.10;;;7.00;78.60;;;;;;4956516;28;20066;-74
2023/11/25 09:32:55;;;;;;;1.50;1.40;;;7.00;78.60;;;;;;4940543;29;20523;-74
2023/11/25 09:35:22;;;;;;;1.40;1.30;;;7.00;78.60;;;;;;4939335;29;20535;-74
2023/11/25 09:37:50;;;;;;;1.20;1.10;;;7.00;78.60;;;;;;4955446;29;20031;-74
2023/11/25 09:40:17;;;;;;;1.40;1.30;;;7.00;78.60;;;;;;4955205;29;20035;-73
2023/11/25 09:42:44;;;;;;;1.80;1.40;;;7.10;78.60;;;;;;4956943;28;20106;-74
2023/11/25 09:45:14;;;;;;;1.95;1.30;;;7.10;78.60;;;;;;4956326;28;20424;-74
2023/11/25 09:47:45;;;;;;;2.25;1.20;;;7.10;78.60;;;;;;4956173;29;20041;-74
2023/11/25 09:50:13;;;;;;;1.30;1.20;;;7.10;78.60;;;;;;4956898;28;20038;-73
2023/11/25 09:52:47;;;;;;;1.30;1.20;;;7.20;78.60;;;;;;4956457;29;20031;-74
2023/11/25 09:55:16;;;;;;;1.55;1.40;;;7.20;78.70;;;;;;4957056;29;20062;-74
2023/11/25 09:57:44;;;;;;;1.67;1.20;;;7.20;78.60;;;;;;4957611;29;20046;-73
2023/11/25 10:00:16;;;;;;;1.38;1.20;;;7.20;78.60;;;;;;4956295;29;20115;-74
2023/11/25 10:02:51;;;;;;;2.00;1.30;;;7.20;78.60;;;;;;4940457;29;20027;-74
2023/11/25 10:05:17;;;;;;;;;;;7.20;78.70;;;;;;4939785;29;20482;-74
2023/11/25 10:07:42;;;;;;;1.88;1.20;;;7.20;78.50;;;;;;4939191;29;19917;-74
2023/11/25 10:10:09;;;;;;;1.33;1.23;;;7.30;78.40;;;;;;4939130;29;20094;-74
2023/11/25 10:12:35;;;;;;;1.70;1.30;;;7.30;78.50;;;;;;4954510;28;20033;-74
2023/11/25 10:15:02;;;;;;;1.52;1.30;;;7.30;78.60;;;;;;4923360;29;20039;-74
2023/11/25 10:17:28;;;;;;;1.20;1.10;;;7.30;78.60;;;;;;4954506;29;20106;-74
2023/11/25 10:20:12;;;;;;;1.40;1.30;;;7.30;78.60;;;;;;4954574;29;20488;-74
2023/11/25 10:22:49;;;;;;;1.30;1.20;;;7.40;78.80;;;;;;4956176;28;20043;-74
2023/11/25 10:25:19;;;;;;;1.40;1.30;;;7.40;78.70;;;;;;4954592;29;20396;-74
2023/11/25 10:27:51;;;;;;;1.80;1.23;;;7.40;78.70;;;;;;4938669;29;20039;-75
2023/11/25 10:30:17;;;;;;;1.40;1.30;;;7.40;79.40;;;;;;4939281;29;20035;-74
2023/11/25 10:32:43;;;;;;;1.23;1.15;;;7.40;78.70;;;;;;4954750;29;20079;-74
2023/11/25 10:35:09;;;;;;;1.30;1.20;;;7.50;78.80;;;;;;4955769;28;20038;-74
2023/11/25 10:37:39;;;;;;;1.40;1.30;;;7.50;78.80;;;;;;4939641;29;20404;-74
2023/11/25 10:40:09;;;;;;;1.52;1.30;;;7.50;78.90;;;;;;4956406;28;20070;-74
2023/11/25 10:42:36;;;;;;;1.27;1.20;;;7.60;78.90;;;;;;4954722;29;20044;-74
2023/11/25 10:45:04;;;;;;;2.17;1.17;;;7.60;78.90;;;;;;4939165;29;20043;-74
2023/11/25 10:47:32;;;;;;;1.60;1.35;;;7.60;78.90;;;;;;4938315;29;20039;-74
2023/11/25 10:50:01;;;;;;;2.33;1.42;;;7.60;78.90;;;;;;4938906;29;20032;-74
2023/11/25 10:52:32;;;;;;;2.20;1.30;;;7.70;78.90;;;;;;4954598;29;20423;-74
2023/11/25 10:54:58;;;;;;;1.80;1.40;;;7.70;79.00;;;;;;4954499;29;20093;-74
2023/11/25 10:57:26;;;;;;;2.28;1.35;;;7.70;78.90;;;;;;4955719;28;20098;-74
2023/11/25 10:59:57;;;;;;;2.00;1.42;;;7.70;78.90;;;;;;4939555;29;20113;-74
2023/11/25 11:02:47;;;;;;;1.42;1.30;;;7.80;79.00;;;;;;4956759;28;20038;-74
2023/11/25 11:05:17;;;;;;;2.15;1.20;;;7.80;79.10;;;;;;4955556;28;20031;-74
2023/11/25 11:07:48;;;;;;;3.38;1.30;;;7.80;79.00;;;;;;4954730;29;20190;-74
2023/11/25 11:10:31;;;;;;;2.15;1.25;;;7.80;79.00;;;;;;4955388;28;20114;-74
2023/11/25 11:13:04;;;;;;;2.42;1.38;;;7.90;79.10;;;;;;4938119;29;20143;-74
2023/11/25 11:15:31;;;;;;;4.45;1.60;;;7.90;79.10;;;;;;4953984;29;20400;-74
2023/11/25 11:18:24;;;;;;;1.67;1.50;;;7.90;79.10;;;;;;4953790;29;20484;-74
2023/11/25 11:20:51;;;;;;;3.00;1.40;;;8.00;79.20;;;;;;4953893;29;20066;-74
2023/11/25 11:23:19;;;;;;;2.22;1.40;;;8.00;79.10;;;;;;4954326;28;20043;-74
2023/11/25 11:26:20;;;;;;;2.60;1.58;;;8.00;79.10;;;;;;4956902;29;20472;-74
2023/11/25 11:28:53;;;;;;;1.92;1.27;;;8.00;79.20;;;;;;4957697;29;20028;-75
2023/11/25 11:31:57;;;;;;;2.35;1.30;;;8.10;79.80;;;;;;4958169;29;20039;-74
2023/11/25 11:34:34;;;;;;;1.52;1.25;;;8.10;79.20;;;;;;4957735;29;20472;-74
2023/11/25 11:37:01;;;;;;;1.83;1.40;;;8.10;79.10;;;;;;4958038;29;20031;-74
2023/11/25 11:39:51;;;;;;;2.80;1.70;;;8.10;79.10;;;;;;4941748;29;20043;-74
2023/11/25 11:42:27;;;;;;;1.90;1.50;;;8.10;79.20;;;;;;4958419;29;20059;-74
2023/11/25 11:45:11;;;;;;;1.45;1.20;;;8.20;79.10;;;;;;4957731;29;20062;-73
2023/11/25 11:47:53;;;;;;;2.13;1.35;;;8.20;79.20;;;;;;4957485;29;20031;-73
2023/11/25 11:50:26;;;;;;;2.20;1.35;;;8.20;79.10;;;;;;4957747;29;20035;-73
2023/11/25 11:53:03;;;;;;;2.03;1.63;;;8.20;79.10;;;;;;4957249;29;20027;-73
2023/11/25 11:55:54;;;;;;;2.30;1.17;;;8.30;79.20;;;;;;4958814;29;20357;-73
2023/11/25 11:58:22;;;;;;;2.33;1.50;;;8.30;79.20;;;;;;4957025;29;20032;-73
2023/11/25 12:00:53;;;;;;;3.67;1.38;;;8.30;79.10;;;;;;4942166;29;20357;-73
2023/11/25 12:03:19;;;;;;;2.33;1.40;;;8.40;79.10;;;;;;4957010;29;20035;-73
2023/11/25 12:05:45;;;;;;;1.30;1.20;;;8.40;79.20;;;;;;4958697;29;20393;-73
2023/11/25 12:08:11;;;;;;;2.30;1.40;;;8.40;79.10;;;;;;4941089;29;20078;-74
2023/11/25 12:10:38;;;;;;;3.33;1.83;;;8.40;79.10;;;;;;4956802;29;20031;-75
2023/11/25 12:13:04;;;;;;;2.33;1.33;;;8.50;79.20;;;;;;4956714;29;20035;-74
2023/11/25 12:15:31;;;;;;;2.90;1.40;;;8.50;79.20;;;;;;4957151;29;20090;-74
2023/11/25 12:17:58;;;;;;;1.27;1.15;;;8.50;79.20;;;;;;4940617;29;20055;-74
2023/11/25 12:20:27;;;;;;;2.03;1.35;;;8.50;79.10;;;;;;4958490;29;20035;-74
2023/11/25 12:22:54;;;;;;;1.98;1.73;;;8.60;79.20;;;;;;4958561;29;20652;-75
2023/11/25 12:25:20;;;;;;;2.83;1.42;;;8.60;79.20;;;;;;4940624;29;20523;-74
2023/11/25 12:28:04;;;;;;;1.80;1.38;;;8.60;79.20;;;;;;4956719;29;20031;-74
2023/11/25 12:30:30;;;;;;;2.15;1.33;;;8.70;79.30;;;;;;4956707;29;20083;-74
2023/11/25 12:32:56;;;;;;;2.50;1.38;;;8.70;79.20;;;;;;4956226;29;20041;-73
2023/11/25 12:35:23;;;;;;;1.35;1.25;;;8.70;79.20;;;;;;4957634;28;20532;-74
2023/11/25 12:37:50;;;;;;;2.45;1.92;;;8.80;79.20;;;;;;4956812;29;20081;-74
2023/11/25 12:40:23;;;;;;;3.60;1.63;;;8.80;79.20;;;;;;4956459;29;20034;-75
2023/11/25 12:42:53;;;;;;;3.53;1.63;;;8.80;79.20;;;;;;4956477;29;20038;-74
2023/11/25 12:45:31;;;;;;;1.88;1.40;;;8.90;79.20;;;;;;4956585;29;20034;-74
2023/11/25 12:47:58;;;;;;;3.47;1.58;;;8.90;79.20;;;;;;4941137;29;20023;-74
2023/11/25 12:50:25;;;;;;;2.20;1.30;;;8.90;79.10;;;;;;4956194;29;20039;-74
2023/11/25 12:53:10;;;;;;;3.42;1.67;;;9.00;79.10;;;;;;4924254;29;20042;-74
2023/11/25 12:55:48;;;;;;;3.60;1.30;;;9.00;79.20;;;;;;4940983;29;20147;-73
2023/11/25 12:58:15;;;;;;;3.33;1.90;;;9.10;79.10;;;;;;4956416;29;20039;-72
2023/11/25 13:00:49;;;;;;;1.42;1.23;;;9.10;79.00;;;;;;4939958;29;20094;-74